RJSU(METAR)
04/24 09:00
METAR RJSU 240000Z VRB01KT 9999 FEW010 SCT040 BKN180 15/10 Q1017 RMK
1ST010 4SC040 6AC180 A3005=
戻る
トップページへ戻る
IMOC Co,.Ltd.